Time;durP1;ratioP1;P1;durP2;ratioP2;P2;SDS_P1;SDS_P2;PMS_P1;PMS_P2;Temp;Humidity;BMP_temperature;BMP_pressure;BME280_temperature;BME280_humidity;BME280_pressure;Samples;Min_cycle;Max_cycle;Signal;HPM_P1;HPM_P2
2021/04/18 00:01:00;;;;;;;113.47;52.60;;;;;;;3.54;88.20;98311.39;1750639;80;21482;-73
2021/04/18 00:03:26;;;;;;;110.83;53.85;;;;;;;3.58;88.47;98315.23;1750664;81;21144;-73
2021/04/18 00:05:53;;;;;;;123.78;57.60;;;;;;;3.54;88.54;98318.91;1750661;80;21161;-73
2021/04/18 00:08:19;;;;;;;122.10;56.80;;;;;;;3.57;88.38;98314.42;1750662;82;21289;-73
2021/04/18 00:10:45;;;;;;;109.32;51.18;;;;;;;3.58;87.86;98309.87;1750494;80;21071;-73
2021/04/18 00:13:13;;;;;;;121.87;54.40;;;;;;;3.54;88.26;98310.87;1750718;81;21135;-73
2021/04/18 00:15:41;;;;;;;128.55;60.65;;;;;;;3.55;88.45;98314.36;1750665;80;21041;-73
2021/04/18 00:18:08;;;;;;;120.62;58.52;;;;;;;3.56;88.00;98314.66;1750892;81;21109;-73
2021/04/18 00:20:35;;;;;;;126.47;58.42;;;;;;;3.53;88.10;98313.26;1751895;80;21236;-72
2021/04/18 00:23:01;;;;;;;118.22;57.53;;;;;;;3.52;88.81;98314.83;1759704;81;21112;-73
2021/04/18 00:25:27;;;;;;;121.33;57.33;;;;;;;3.51;88.66;98317.22;1759702;80;21144;-73
2021/04/18 00:27:53;;;;;;;125.18;57.58;;;;;;;3.52;88.82;98318.84;1759703;81;21159;-73
2021/04/18 00:30:21;;;;;;;125.58;54.18;;;;;;;3.53;87.82;98314.59;1759713;80;21123;-73
2021/04/18 00:32:47;;;;;;;112.68;52.33;;;;;;;3.51;87.76;98312.67;1759738;81;21197;-73
2021/04/18 00:35:16;;;;;;;119.02;54.85;;;;;;;3.52;87.34;98316.17;1759657;80;21141;-73
2021/04/18 00:37:42;;;;;;;118.87;51.20;;;;;;;3.48;87.44;98306.41;1759853;81;21084;-73
2021/04/18 00:40:14;;;;;;;119.33;56.88;;;;;;;3.45;87.38;98304.72;1759779;81;21152;-73
2021/04/18 00:42:40;;;;;;;114.72;55.05;;;;;;;3.50;87.87;98311.53;1759721;81;21108;-72
2021/04/18 00:45:08;;;;;;;117.42;56.70;;;;;;;3.52;88.35;98310.28;1759754;81;21194;-72
2021/04/18 00:47:34;;;;;;;113.32;52.60;;;;;;;3.56;88.38;98303.94;1759700;80;21045;-72
2021/04/18 00:50:00;;;;;;;123.58;58.48;;;;;;;3.58;88.55;98308.02;1759712;81;21171;-72
2021/04/18 00:52:26;;;;;;;114.20;58.68;;;;;;;3.59;89.10;98312.36;1759728;80;21497;-72
2021/04/18 00:54:53;;;;;;;118.95;58.55;;;;;;;3.61;88.91;98310.78;1759723;81;21135;-73
2021/04/18 00:57:19;;;;;;;121.80;59.70;;;;;;;3.65;88.75;98307.41;1759760;80;22103;-72
2021/04/18 00:59:45;;;;;;;131.47;56.98;;;;;;;3.63;88.61;98308.16;1759608;81;21442;-72
2021/04/18 01:02:12;;;;;;;136.82;64.53;;;;;;;3.58;87.36;98302.66;1759671;80;21057;-72
2021/04/18 01:04:38;;;;;;;132.75;58.10;;;;;;;3.49;87.49;98298.66;1759725;81;21112;-72
2021/04/18 01:07:05;;;;;;;123.50;55.03;;;;;;;3.46;88.68;98303.15;1759689;80;21537;-73
2021/04/18 01:09:31;;;;;;;115.97;52.78;;;;;;;3.48;88.59;98298.89;1759793;81;21197;-72
2021/04/18 01:11:58;;;;;;;107.65;48.00;;;;;;;3.51;87.58;98294.44;1759648;80;21125;-72
2021/04/18 01:14:24;;;;;;;119.42;53.25;;;;;;;3.47;87.28;98291.91;1759699;81;21103;-72
2021/04/18 01:16:51;;;;;;;111.80;48.17;;;;;;;3.40;87.52;98286.11;1759708;80;21108;-72
2021/04/18 01:19:17;;;;;;;107.97;49.20;;;;;;;3.38;87.52;98288.20;1759753;81;21135;-72
2021/04/18 01:21:43;;;;;;;108.03;48.15;;;;;;;3.38;87.33;98287.39;1759625;80;22039;-72
2021/04/18 01:24:09;;;;;;;119.35;52.55;;;;;;;3.35;87.37;98290.00;1759738;81;21556;-73
2021/04/18 01:26:35;;;;;;;104.15;49.27;;;;;;;3.30;89.63;98293.87;1759663;80;21135;-72
2021/04/18 01:29:03;;;;;;;115.82;51.77;;;;;;;3.32;89.96;98290.44;1759794;81;21564;-72
2021/04/18 01:31:29;;;;;;;112.72;54.05;;;;;;;3.38;89.55;98295.42;1759955;80;21077;-72
2021/04/18 01:33:56;;;;;;;106.78;50.85;;;;;;;3.42;89.17;98295.28;1759718;81;21284;-72
2021/04/18 01:36:22;;;;;;;112.05;53.70;;;;;;;3.39;88.00;98293.85;1759591;80;21036;-72
2021/04/18 01:38:49;;;;;;;111.60;47.83;;;;;;;3.34;88.77;98296.94;1759795;81;21541;-73
2021/04/18 01:41:15;;;;;;;116.37;53.65;;;;;;;3.35;88.24;98298.05;1759788;80;21144;-72
2021/04/18 01:43:41;;;;;;;114.08;48.90;;;;;;;3.27;87.49;98289.50;1759978;81;21077;-72
2021/04/18 01:46:08;;;;;;;123.10;52.38;;;;;;;3.23;88.31;98290.45;1759832;80;21470;-72
2021/04/18 01:48:34;;;;;;;104.17;48.13;;;;;;;3.23;88.75;98289.12;1734065;81;21127;-72
2021/04/18 01:51:06;;;;;;;99.60;46.37;;;;;;;3.25;87.95;98291.59;1759903;80;21124;-72
2021/04/18 01:53:33;;;;;;;102.80;50.52;;;;;;;3.26;88.86;98283.85;1759874;81;21097;-73
2021/04/18 01:55:59;;;;;;;90.20;42.27;;;;;;;3.30;89.38;98290.38;1759816;80;21616;-73
2021/04/18 01:58:26;;;;;;;101.15;45.25;;;;;;;3.34;88.53;98288.38;1759868;81;21259;-73
2021/04/18 02:00:52;;;;;;;101.75;47.73;;;;;;;3.30;88.12;98287.70;1759695;80;21082;-73
2021/04/18 02:03:18;;;;;;;109.95;47.20;;;;;;;3.30;88.83;98287.70;1759932;81;21148;-74
2021/04/18 02:05:44;;;;;;;96.85;47.25;;;;;;;3.34;89.48;98284.88;1759842;80;21044;-73
2021/04/18 02:08:10;;;;;;;100.33;49.25;;;;;;;3.34;89.27;98287.56;1759847;81;21124;-73
2021/04/18 02:10:36;;;;;;;95.03;44.53;;;;;;;3.34;89.60;98287.56;1759841;80;21592;-73
2021/04/18 02:13:03;;;;;;;87.75;43.95;;;;;;;3.31;89.43;98279.44;1759752;81;21180;-74
2021/04/18 02:15:29;;;;;;;94.45;45.45;;;;;;;3.32;89.33;98284.27;1759841;80;21132;-73
2021/04/18 02:17:55;;;;;;;95.83;45.95;;;;;;;3.30;88.96;98285.02;1759872;81;21145;-73
2021/04/18 02:20:21;;;;;;;96.80;42.45;;;;;;;3.26;89.08;98283.85;1759814;80;21108;-73
2021/04/18 02:22:47;;;;;;;93.35;43.13;;;;;;;3.30;88.48;98280.48;1752162;81;21486;-73
2021/04/18 02:25:14;;;;;;;89.60;41.88;;;;;;;3.25;88.22;98281.70;1750734;80;21577;-73
2021/04/18 02:27:41;;;;;;;90.00;42.40;;;;;;;3.27;88.55;98280.95;1750704;81;21065;-73
2021/04/18 02:30:11;;;;;;;85.62;43.28;;;;;;;3.25;88.82;98277.68;1750842;81;21088;-73
2021/04/18 02:32:37;;;;;;;80.47;39.33;;;;;;;3.25;89.52;98278.20;1750688;80;21486;-72
2021/04/18 02:35:05;;;;;;;84.47;38.23;;;;;;;3.27;89.67;98277.45;1750719;81;21545;-72
2021/04/18 02:37:31;;;;;;;80.45;38.83;;;;;;;3.30;89.69;98272.44;1750563;80;21161;-71
2021/04/18 02:39:57;;;;;;;86.87;42.10;;;;;;;3.31;89.37;98278.09;1750694;82;21533;-72
2021/04/18 02:42:24;;;;;;;74.17;34.08;;;;;;;3.33;89.20;98273.35;1750754;80;21041;-72
2021/04/18 02:44:50;;;;;;;88.72;41.68;;;;;;;3.41;88.65;98269.51;1750734;82;21545;-72
2021/04/18 02:47:16;;;;;;;77.05;36.08;;;;;;;3.35;88.63;98267.23;1750663;80;21201;-72
2021/04/18 02:49:42;;;;;;;85.97;38.63;;;;;;;3.37;88.23;98262.98;1750728;82;21141;-72
2021/04/18 02:52:09;;;;;;;88.75;46.23;;;;;;;3.32;88.19;98262.84;1750640;80;21097;-72
2021/04/18 02:54:35;;;;;;;98.35;44.50;;;;;;;3.28;88.90;98259.81;1750698;81;21093;-72
2021/04/18 02:57:01;;;;;;;87.42;41.33;;;;;;;3.31;89.43;98253.98;1750652;80;21105;-72
2021/04/18 02:59:28;;;;;;;83.37;38.42;;;;;;;3.32;89.16;98258.30;1750738;81;21206;-72
2021/04/18 03:01:54;;;;;;;80.70;39.38;;;;;;;3.32;88.55;98253.46;1750544;80;21430;-72
2021/04/18 03:04:20;;;;;;;83.72;40.40;;;;;;;3.27;88.44;98260.86;1750711;81;21514;-72
2021/04/18 03:06:46;;;;;;;82.02;39.60;;;;;;;3.20;87.83;98248.59;1750720;80;21548;-72
2021/04/18 03:09:12;;;;;;;85.35;39.05;;;;;;;3.16;87.58;98252.75;1750679;81;21124;-72
2021/04/18 03:11:38;;;;;;;82.85;39.30;;;;;;;3.13;87.96;98246.00;1750636;80;21265;-72
2021/04/18 03:14:04;;;;;;;77.90;39.25;;;;;;;3.11;88.17;98242.73;1750649;81;21133;-72
2021/04/18 03:16:30;;;;;;;83.30;40.48;;;;;;;3.12;88.33;98244.37;1750645;80;21176;-72
2021/04/18 03:18:57;;;;;;;81.53;38.33;;;;;;;3.14;88.44;98241.45;1750800;82;21541;-73
2021/04/18 03:21:23;;;;;;;83.25;40.63;;;;;;;3.18;89.21;98239.45;1752481;80;21431;-72
2021/04/18 03:23:49;;;;;;;87.62;40.03;;;;;;;3.24;89.31;98238.52;1767479;81;21465;-72
2021/04/18 03:26:15;;;;;;;75.92;37.35;;;;;;;3.29;88.60;98233.31;1767249;79;21397;-72
2021/04/18 03:28:41;;;;;;;80.90;39.23;;;;;;;3.30;88.44;98235.47;1767346;81;21542;-72
2021/04/18 03:31:07;;;;;;;87.45;41.55;;;;;;;3.28;88.47;98234.89;1767346;79;21100;-72
2021/04/18 03:33:34;;;;;;;82.82;39.95;;;;;;;3.30;88.83;98232.80;1767422;81;21128;-72
2021/04/18 03:36:00;;;;;;;82.67;41.35;;;;;;;3.33;88.98;98231.83;1767343;79;21267;-72
2021/04/18 03:38:26;;;;;;;92.17;44.63;;;;;;;3.34;89.14;98233.46;1741179;81;21143;-72
2021/04/18 03:40:52;;;;;;;92.02;48.38;;;;;;;3.37;89.16;98234.33;1767343;79;21076;-72
2021/04/18 03:43:19;;;;;;;97.57;45.95;;;;;;;3.34;89.46;98236.66;1767436;81;21493;-72
2021/04/18 03:45:45;;;;;;;85.92;43.25;;;;;;;3.32;88.99;98236.87;1767425;79;21406;-72
2021/04/18 03:48:11;;;;;;;85.15;41.30;;;;;;;3.33;88.78;98235.84;1767303;81;21196;-72
2021/04/18 03:50:37;;;;;;;87.88;41.45;;;;;;;3.32;88.74;98234.71;1767347;79;21199;-71
2021/04/18 03:53:03;;;;;;;83.05;40.23;;;;;;;3.30;88.40;98230.11;1767405;81;21441;-72
2021/04/18 03:55:29;;;;;;;85.83;41.20;;;;;;;3.29;88.71;98233.31;1767430;79;21552;-72
2021/04/18 03:57:55;;;;;;;76.20;35.05;;;;;;;3.30;89.13;98234.13;1767357;81;21151;-72
2021/04/18 04:00:23;;;;;;;92.70;41.08;;;;;;;3.30;88.19;98236.81;1767275;79;21173;-72
2021/04/18 04:02:49;;;;;;;82.15;40.10;;;;;;;3.27;88.42;98240.77;1766481;81;21087;-72
2021/04/18 04:05:15;;;;;;;72.78;36.80;;;;;;;3.23;88.52;98246.79;1767324;79;21568;-72
2021/04/18 04:07:41;;;;;;;82.35;37.67;;;;;;;3.23;88.66;98246.27;1767310;81;21458;-72
2021/04/18 04:10:08;;;;;;;70.83;37.28;;;;;;;3.21;89.08;98243.00;1767360;81;21124;-72
2021/04/18 04:12:34;;;;;;;78.52;40.25;;;;;;;3.19;89.00;98249.12;1767292;79;21220;-72
2021/04/18 04:15:01;;;;;;;87.57;46.30;;;;;;;3.22;89.46;98249.17;1767281;81;21179;-72
2021/04/18 04:17:27;;;;;;;72.47;39.03;;;;;;;3.25;89.69;98248.75;1767271;79;21171;-72
2021/04/18 04:19:53;;;;;;;62.53;33.65;;;;;;;3.26;88.86;98247.70;1767399;81;21156;-72
2021/04/18 04:22:20;;;;;;;70.32;33.78;;;;;;;3.23;88.69;98241.44;1764456;79;21080;-72
2021/04/18 04:24:47;;;;;;;79.80;36.93;;;;;;;3.20;88.40;98243.23;1759852;81;22107;-72
2021/04/18 04:27:14;;;;;;;75.20;36.53;;;;;;;3.18;88.30;98243.47;1759610;80;21112;-72
2021/04/18 04:29:40;;;;;;;72.40;36.20;;;;;;;3.16;88.37;98242.86;1759717;81;21069;-72
2021/04/18 04:32:07;;;;;;;73.60;36.60;;;;;;;3.19;88.17;98240.27;1759708;80;21485;-72
2021/04/18 04:34:33;;;;;;;68.00;36.90;;;;;;;3.23;88.83;98241.44;1759735;81;21087;-72
2021/04/18 04:37:00;;;;;;;66.60;34.13;;;;;;;3.26;88.83;98241.00;1759757;80;21196;-72
2021/04/18 04:39:26;;;;;;;63.63;33.45;;;;;;;3.32;88.73;98242.22;1759791;81;21128;-72
2021/04/18 04:41:52;;;;;;;72.58;35.83;;;;;;;3.35;88.50;98237.77;1759628;80;21053;-72
2021/04/18 04:44:18;;;;;;;78.37;37.28;;;;;;;3.32;88.01;98238.20;1759839;81;21560;-72
2021/04/18 04:46:45;;;;;;;65.65;33.78;;;;;;;3.23;89.00;98235.55;1759745;80;21426;-72
2021/04/18 04:49:11;;;;;;;68.05;36.90;;;;;;;3.27;89.47;98239.43;1759811;81;21196;-72
2021/04/18 04:51:37;;;;;;;63.68;31.85;;;;;;;3.36;88.75;98231.89;1759673;80;21104;-72
2021/04/18 04:54:04;;;;;;;61.23;31.45;;;;;;;3.38;88.27;98239.98;1759701;81;21152;-72
2021/04/18 04:56:30;;;;;;;68.07;35.58;;;;;;;3.33;88.70;98238.53;1759710;80;21482;-71
2021/04/18 04:58:56;;;;;;;62.58;33.45;;;;;;;3.35;89.05;98236.44;1759689;81;21119;-72
2021/04/18 05:01:22;;;;;;;64.22;35.40;;;;;;;3.39;89.05;98231.42;1759664;80;21076;-72
2021/04/18 05:03:48;;;;;;;60.67;32.53;;;;;;;3.43;89.15;98232.61;1759685;81;21116;-71
2021/04/18 05:06:14;;;;;;;64.05;32.88;;;;;;;3.41;88.67;98234.69;1759693;80;21072;-72
2021/04/18 05:08:40;;;;;;;66.17;32.55;;;;;;;3.33;88.14;98233.17;1759767;81;21430;-72
2021/04/18 05:11:06;;;;;;;63.80;33.75;;;;;;;3.33;88.33;98230.98;1759728;80;21077;-71
2021/04/18 05:13:33;;;;;;;63.60;33.73;;;;;;;3.34;88.67;98233.98;1759776;81;21399;-72
2021/04/18 05:15:59;;;;;;;65.10;32.58;;;;;;;3.40;88.50;98235.20;1759693;80;21076;-72
2021/04/18 05:18:25;;;;;;;54.53;29.10;;;;;;;3.42;88.42;98239.02;1759762;81;21568;-72
2021/04/18 05:20:51;;;;;;;59.75;30.70;;;;;;;3.47;87.94;98236.98;1759623;80;21025;-72
2021/04/18 05:23:18;;;;;;;58.55;31.07;;;;;;;3.45;87.75;98239.89;1759643;81;21481;-72
2021/04/18 05:25:44;;;;;;;52.27;27.65;;;;;;;3.44;87.70;98238.27;1759676;80;21201;-72
2021/04/18 05:28:10;;;;;;;56.25;31.15;;;;;;;3.50;87.76;98240.53;1759735;81;21119;-72
2021/04/18 05:30:36;;;;;;;54.55;31.25;;;;;;;3.55;88.33;98240.15;1759778;80;21196;-72
2021/04/18 05:33:02;;;;;;;56.60;31.25;;;;;;;3.64;88.30;98236.09;1759640;81;21064;-72
2021/04/18 05:35:28;;;;;;;62.78;36.30;;;;;;;3.80;88.03;98243.18;1759710;80;21146;-72
2021/04/18 05:37:54;;;;;;;68.15;35.70;;;;;;;3.85;87.94;98247.34;1759788;81;21259;-72
2021/04/18 05:40:21;;;;;;;71.60;38.45;;;;;;;3.95;88.04;98245.72;1759585;80;21147;-72
2021/04/18 05:42:47;;;;;;;69.27;36.28;;;;;;;4.04;87.53;98239.48;1759687;81;21092;-72
2021/04/18 05:45:13;;;;;;;81.08;42.75;;;;;;;4.13;87.42;98238.62;1759774;81;21577;-72
2021/04/18 05:47:39;;;;;;;63.70;35.45;;;;;;;4.20;86.92;98244.16;1759703;81;21064;-72
2021/04/18 05:50:07;;;;;;;83.12;41.65;;;;;;;4.33;86.97;98245.78;1759763;81;22052;-72
2021/04/18 05:52:33;;;;;;;69.55;36.65;;;;;;;4.45;86.50;98245.80;1759597;80;21057;-72
2021/04/18 05:54:59;;;;;;;201.10;89.30;;;;;;;4.58;85.95;98240.16;1759775;81;21124;-72
2021/04/18 05:57:25;;;;;;;144.93;67.58;;;;;;;4.73;85.67;98245.86;1759732;80;21124;-72
2021/04/18 05:59:51;;;;;;;69.92;38.80;;;;;;;4.92;85.66;98245.70;1759745;81;21152;-72
2021/04/18 06:02:17;;;;;;;67.70;37.23;;;;;;;5.14;85.68;98241.85;1759719;80;22054;-72
2021/04/18 06:04:44;;;;;;;63.35;35.33;;;;;;;5.36;85.29;98244.14;1759641;81;21553;-72
2021/04/18 06:07:10;;;;;;;63.13;35.05;;;;;;;5.41;83.34;98246.13;1759620;80;21057;-72
2021/04/18 06:09:36;;;;;;;54.73;32.90;;;;;;;5.54;83.44;98239.90;1759701;81;21152;-72
2021/04/18 06:12:03;;;;;;;54.80;32.80;;;;;;;5.62;83.20;98238.70;1759639;80;21053;-72
2021/04/18 06:14:29;;;;;;;46.58;26.42;;;;;;;5.66;82.74;98239.33;1759701;81;21193;-72
2021/04/18 06:16:55;;;;;;;46.60;29.10;;;;;;;5.69;82.95;98242.58;1759678;80;21485;-72
2021/04/18 06:19:21;;;;;;;40.03;24.70;;;;;;;5.73;83.11;98249.94;1759657;81;21140;-72
2021/04/18 06:21:47;;;;;;;46.70;27.90;;;;;;;5.77;82.12;98248.91;1759698;80;21108;-71
2021/04/18 06:24:13;;;;;;;50.05;33.55;;;;;;;5.81;82.40;98248.19;1759615;81;21018;-72
2021/04/18 06:26:39;;;;;;;41.90;25.50;;;;;;;5.87;82.25;98251.77;1759721;80;21210;-72
2021/04/18 06:29:06;;;;;;;44.60;25.55;;;;;;;5.86;81.52;98252.30;1759825;81;21585;-72
2021/04/18 06:31:32;;;;;;;45.70;28.62;;;;;;;5.89;80.97;98248.30;1759898;80;21435;-72
2021/04/18 06:33:58;;;;;;;45.30;25.62;;;;;;;5.96;81.65;98253.02;1759879;81;21520;-72
2021/04/18 06:36:24;;;;;;;45.40;24.60;;;;;;;6.04;82.20;98253.95;1759807;80;21037;-72
2021/04/18 06:38:50;;;;;;;41.50;26.07;;;;;;;6.06;82.52;98258.56;1759927;81;21200;-72
2021/04/18 06:41:21;;;;;;;37.33;23.60;;;;;;;6.00;82.35;98255.52;1759722;80;21096;-71
2021/04/18 06:43:49;;;;;;;45.25;27.22;;;;;;;6.02;82.81;98262.00;1734331;81;21557;-72
2021/04/18 06:46:17;;;;;;;45.12;24.57;;;;;;;6.00;81.89;98257.40;1759883;80;21125;-72
2021/04/18 06:48:47;;;;;;;38.90;22.20;;;;;;;5.90;81.90;98260.20;1759880;81;21414;-72
2021/04/18 06:51:20;;;;;;;45.58;24.12;;;;;;;5.89;81.74;98257.70;1759892;80;22064;-72
2021/04/18 06:53:47;;;;;;;36.28;22.80;;;;;;;5.90;82.06;98256.17;1759690;81;21140;-73
2021/04/18 06:56:14;;;;;;;39.38;23.98;;;;;;;5.86;81.60;98254.17;1759773;80;21168;-73
2021/04/18 06:58:40;;;;;;;38.20;22.82;;;;;;;5.90;81.98;98253.98;1759772;81;21100;-73
2021/04/18 07:01:06;;;;;;;36.15;21.10;;;;;;;6.01;81.69;98260.38;1759838;80;21513;-73
2021/04/18 07:03:32;;;;;;;32.90;20.12;;;;;;;6.04;81.54;98252.61;1759783;81;21212;-73
2021/04/18 07:05:59;;;;;;;34.80;19.95;;;;;;;6.11;81.31;98259.19;1759709;80;21108;-73
2021/04/18 07:08:30;;;;;;;40.83;22.42;;;;;;;6.03;81.19;98258.24;1759769;81;21044;-73
2021/04/18 07:11:21;;;;;;;36.88;22.20;;;;;;;6.02;80.86;98255.27;1759851;80;21525;-72
2021/04/18 07:13:47;;;;;;;43.87;26.57;;;;;;;6.13;81.57;98257.87;1759912;81;21087;-72
2021/04/18 07:16:32;;;;;;;44.33;26.40;;;;;;;6.21;81.57;98252.08;1759757;80;21194;-72
2021/04/18 07:18:58;;;;;;;43.80;28.47;;;;;;;6.31;81.78;98258.14;1759771;81;21120;-72
2021/04/18 07:21:44;;;;;;;41.73;24.25;;;;;;;6.30;80.72;98265.13;1759820;80;21033;-72
2021/04/18 07:24:11;;;;;;;38.33;24.80;;;;;;;6.25;80.54;98265.88;1728574;82;21033;-72
2021/04/18 07:26:37;;;;;;;44.55;25.90;;;;;;;6.21;80.32;98266.06;1750773;80;21089;-72
2021/04/18 07:29:18;;;;;;;38.92;23.92;;;;;;;6.27;80.80;98271.01;1750651;81;21354;-72
2021/04/18 07:31:44;;;;;;;42.40;24.70;;;;;;;6.28;80.55;98264.03;1750566;80;21058;-73
2021/04/18 07:34:13;;;;;;;39.23;21.85;;;;;;;6.27;80.67;98262.40;1750757;82;21415;-70
2021/04/18 07:36:45;;;;;;;42.48;24.35;;;;;;;6.26;80.30;98266.69;1750255;80;21088;-71
2021/04/18 07:39:13;;;;;;;34.92;20.70;;;;;;;6.31;80.84;98264.88;1750689;81;21033;-72
2021/04/18 07:41:42;;;;;;;33.30;22.00;;;;;;;6.38;80.53;98264.17;1750588;80;21383;-72
2021/04/18 07:44:15;;;;;;;48.10;33.02;;;;;;;6.44;80.70;98264.55;1750732;82;21096;-72
2021/04/18 07:46:38;;;;;;;45.65;28.23;;;;;;;6.54;80.97;98263.06;1750610;80;21513;-72
2021/04/18 07:49:04;;;;;;;39.80;23.10;;;;;;;6.55;80.35;98260.11;1750730;82;21442;-72
2021/04/18 07:51:30;;;;;;;42.55;25.92;;;;;;;6.55;79.89;98261.46;1750666;80;21101;-72
2021/04/18 07:53:56;;;;;;;36.35;21.35;;;;;;;6.64;80.37;98261.85;1750720;81;21391;-72
2021/04/18 07:56:22;;;;;;;39.50;24.57;;;;;;;6.63;79.96;98262.92;1750611;80;21066;-72
2021/04/18 07:58:48;;;;;;;34.78;20.60;;;;;;;6.59;79.19;98262.61;1750704;81;21121;-72
2021/04/18 08:01:15;;;;;;;36.40;24.00;;;;;;;6.55;78.94;98260.64;1750611;80;21108;-72
2021/04/18 08:03:43;;;;;;;45.45;32.10;;;;;;;6.60;79.57;98257.50;1750629;82;21037;-72
2021/04/18 08:06:09;;;;;;;43.98;29.18;;;;;;;6.68;79.94;98262.47;1750716;80;21249;-72
2021/04/18 08:08:48;;;;;;;36.77;21.70;;;;;;;6.73;79.79;98262.52;1750586;81;21360;-72
2021/04/18 08:11:16;;;;;;;56.00;34.03;;;;;;;6.75;79.59;98260.42;1750628;80;21116;-71
2021/04/18 08:13:47;;;;;;;33.90;22.32;;;;;;;6.74;79.23;98260.64;1750686;81;21045;-71
2021/04/18 08:16:14;;;;;;;39.13;21.50;;;;;;;6.67;78.77;98264.07;1750683;80;21656;-72
2021/04/18 08:18:45;;;;;;;37.75;22.98;;;;;;;6.78;79.38;98265.30;1750593;81;21246;-72
2021/04/18 08:24:34;;;;;;;30.52;17.77;;;;;;;7.10;79.12;98253.84;1872770;75;22665;-71
2021/04/18 08:27:08;;;;;;;69.53;35.60;;;;;;;7.01;79.20;98262.09;1831122;77;21086;-72
2021/04/18 08:29:38;;;;;;;36.00;20.77;;;;;;;6.99;78.90;98257.46;1797159;78;22008;-73
2021/04/18 08:32:09;;;;;;;36.50;25.70;;;;;;;6.93;78.80;98257.14;1778628;78;21071;-73
2021/04/18 08:34:43;;;;;;;34.10;23.12;;;;;;;6.98;78.88;98258.00;1786887;79;21065;-73
2021/04/18 08:37:16;;;;;;;32.17;21.77;;;;;;;7.08;78.94;98251.38;1786416;78;21151;-72
2021/04/18 08:39:42;;;;;;;37.88;22.55;;;;;;;7.16;77.93;98257.40;1785192;78;21440;-72
2021/04/18 08:42:12;;;;;;;35.10;21.93;;;;;;;7.17;77.90;98254.45;1794777;78;22098;-72
2021/04/18 08:44:43;;;;;;;38.30;24.55;;;;;;;7.14;77.93;98255.49;1788443;78;21137;-72
2021/04/18 08:47:13;;;;;;;35.65;23.35;;;;;;;7.10;77.85;98249.00;1778476;78;21027;-72
2021/04/18 08:49:49;;;;;;;27.87;17.73;;;;;;;7.17;78.24;98256.33;1771690;80;21181;-72
2021/04/18 08:52:24;;;;;;;32.42;20.27;;;;;;;7.28;78.35;98251.36;1771871;80;21019;-72
2021/04/18 08:54:52;;;;;;;25.60;17.87;;;;;;;7.42;77.24;98248.53;1774228;79;21514;-72
2021/04/18 08:57:21;;;;;;;30.88;17.45;;;;;;;7.30;76.64;98243.29;1786717;78;21114;-72
2021/04/18 08:59:49;;;;;;;;;;;;;;;7.33;76.57;98244.12;1776721;80;21606;-72
2021/04/18 09:02:15;;;;;;;55.60;31.40;;;;;;;7.48;76.16;98246.17;1768818;79;20228;-72
2021/04/18 09:04:50;;;;;;;52.73;30.35;;;;;;;7.56;76.63;98246.25;1790749;79;21099;-72
2021/04/18 09:07:19;;;;;;;68.02;43.45;;;;;;;7.81;75.74;98240.29;1792022;78;21143;-71
2021/04/18 09:09:46;;;;;;;69.60;46.37;;;;;;;7.86;74.76;98241.16;1761198;80;26399;-71
2021/04/18 09:12:15;;;;;;;51.50;29.00;;;;;;;7.96;75.45;98239.62;1757790;80;21190;-71
2021/04/18 09:14:44;;;;;;;;;;;;;;;8.08;74.06;98237.00;1743695;80;21040;-71
2021/04/18 09:17:25;;;;;;;;;;;;;;;7.97;75.18;98237.20;1764503;80;20306;-72
2021/04/18 09:19:56;;;;;;;31.12;18.70;;;;;;;8.01;74.70;98235.59;1759798;80;21128;-73
2021/04/18 09:22:31;;;;;;;40.48;24.12;;;;;;;8.06;75.37;98239.70;1759758;80;21047;-71
2021/04/18 09:25:07;;;;;;;36.35;21.48;;;;;;;8.03;74.85;98235.63;1740777;81;21052;-72
2021/04/18 09:27:35;;;;;;;44.77;25.27;;;;;;;8.00;75.08;98233.97;1751365;80;21047;-72
2021/04/18 09:30:08;;;;;;;41.92;25.08;;;;;;;7.95;73.74;98230.70;1756070;81;21095;-72
2021/04/18 09:32:36;;;;;;;36.33;22.67;;;;;;;7.77;74.45;98238.63;1740514;81;21196;-71
2021/04/18 09:35:04;;;;;;;33.38;19.80;;;;;;;7.77;75.26;98236.46;1736744;82;21218;-72
2021/04/18 09:37:33;;;;;;;39.75;24.02;;;;;;;7.75;73.95;98238.61;1735220;81;21441;-71
2021/04/18 09:40:04;;;;;;;39.25;22.80;;;;;;;7.79;74.71;98239.73;1712838;81;21103;-71
2021/04/18 09:42:36;;;;;;;44.77;24.98;;;;;;;7.88;73.86;98238.20;1725908;81;21128;-72
2021/04/18 09:45:18;;;;;;;51.80;27.37;;;;;;;7.72;69.92;98238.59;1731109;82;22188;-72
2021/04/18 09:47:47;;;;;;;33.90;19.73;;;;;;;7.66;68.18;98236.09;1731524;81;21437;-73
2021/04/18 09:50:19;;;;;;;29.52;17.82;;;;;;;7.73;68.08;98234.82;1732863;82;21048;-73
2021/04/18 09:52:46;;;;;;;31.07;17.23;;;;;;;8.02;70.81;98235.33;1730585;82;21044;-71
2021/04/18 09:55:23;;;;;;;27.20;17.75;;;;;;;8.28;69.68;98232.82;1731666;82;21035;-72
2021/04/18 09:57:55;;;;;;;61.92;30.43;;;;;;;8.23;68.99;98233.62;1742179;81;22166;-72
2021/04/18 10:00:35;;;;;;;25.95;15.98;;;;;;;8.10;70.04;98234.86;1712239;82;21502;-71
2021/04/18 10:03:13;;;;;;;20.95;15.08;;;;;;;8.04;68.54;98238.61;1725441;82;21582;-71
2021/04/18 10:05:47;;;;;;;32.33;18.77;;;;;;;7.98;68.25;98238.28;1708126;82;21059;-72
2021/04/18 10:08:27;;;;;;;45.10;23.50;;;;;;;8.05;67.53;98235.38;1726455;81;21488;-72
2021/04/18 10:11:08;;;;;;;22.50;14.63;;;;;;;8.16;68.72;98240.58;1779542;79;21329;-71
2021/04/18 10:13:44;;;;;;;31.57;20.00;;;;;;;8.03;67.13;98241.54;1778586;79;21019;-72
2021/04/18 10:16:11;;;;;;;30.80;19.62;;;;;;;8.32;68.42;98233.41;1779180;79;21043;-71
2021/04/18 10:18:41;;;;;;;30.17;18.95;;;;;;;8.53;68.26;98245.72;1792041;79;21118;-71
2021/04/18 10:21:21;;;;;;;22.42;14.05;;;;;;;8.58;66.86;98241.16;1799910;78;21089;-72
2021/04/18 10:23:50;;;;;;;17.15;10.35;;;;;;;8.88;68.00;98242.39;1793564;79;21216;-73
2021/04/18 10:26:19;;;;;;;19.25;12.03;;;;;;;9.17;67.64;98235.50;1781199;79;21560;-72
2021/04/18 10:28:50;;;;;;;37.42;20.55;;;;;;;8.84;61.91;98240.77;1791234;78;21035;-74
2021/04/18 10:31:18;;;;;;;13.43;9.18;;;;;;;9.19;65.73;98231.17;1793141;78;21032;-71
2021/04/18 10:33:45;;;;;;;18.30;11.55;;;;;;;9.22;62.88;98236.05;1787115;79;21515;-71
2021/04/18 10:36:11;;;;;;;17.77;11.78;;;;;;;9.56;62.55;98235.86;1793440;78;21184;-71
2021/04/18 10:38:37;;;;;;;17.02;10.53;;;;;;;9.53;60.54;98235.59;1798013;78;21059;-71
2021/04/18 10:41:04;;;;;;;15.23;11.20;;;;;;;9.53;58.80;98228.30;1771121;80;21614;-71
2021/04/18 10:43:30;;;;;;;21.85;13.55;;;;;;;9.72;59.01;98224.53;1777989;80;21090;-71
2021/04/18 10:45:56;;;;;;;16.65;11.93;;;;;;;10.17;60.97;98216.17;1778702;79;21074;-72
2021/04/18 10:48:22;;;;;;;14.65;9.60;;;;;;;10.26;57.05;98219.17;1777748;80;21199;-72
2021/04/18 10:50:49;;;;;;;14.18;9.68;;;;;;;10.47;57.35;98212.63;1788933;78;21146;-72
2021/04/18 10:53:15;;;;;;;14.43;10.28;;;;;;;10.82;57.49;98214.97;1784949;79;21265;-72
2021/04/18 10:55:42;;;;;;;14.83;9.70;;;;;;;11.10;60.61;98212.95;1782350;78;21544;-72
2021/04/18 10:58:08;;;;;;;13.90;8.48;;;;;;;11.08;56.80;98212.97;1799267;78;21122;-72
2021/04/18 11:00:35;;;;;;;12.23;8.55;;;;;;;10.85;53.59;98217.12;1786099;79;21257;-72
2021/04/18 11:03:01;;;;;;;14.07;9.63;;;;;;;10.24;54.47;98216.71;1781658;78;21269;-72
2021/04/18 11:05:27;;;;;;;17.37;9.98;;;;;;;11.01;57.07;98214.62;1778110;79;21011;-72
2021/04/18 11:07:53;;;;;;;19.77;12.28;;;;;;;11.05;56.59;98210.28;1784344;79;21027;-72
2021/04/18 11:10:20;;;;;;;15.70;10.28;;;;;;;11.26;56.00;98211.79;1785950;78;21138;-72
2021/04/18 11:12:46;;;;;;;11.83;8.50;;;;;;;11.38;55.88;98206.59;1784398;79;21191;-72
2021/04/18 11:15:12;;;;;;;12.75;9.18;;;;;;;11.50;53.46;98216.55;1776964;79;21114;-72
2021/04/18 11:17:39;;;;;;;10.63;7.67;;;;;;;11.17;53.67;98212.11;1786162;79;21484;-72
2021/04/18 11:20:11;;;;;;;14.55;9.10;;;;;;;11.29;55.45;98209.89;1799319;78;21050;-72
2021/04/18 11:22:38;;;;;;;13.20;9.20;;;;;;;11.23;55.68;98208.29;1786004;78;21039;-71
2021/04/18 11:25:12;;;;;;;28.90;18.37;;;;;;;11.01;54.33;98206.48;1794635;78;21192;-71
2021/04/18 11:27:39;;;;;;;25.52;13.30;;;;;;;11.42;53.82;98209.00;1798449;79;21173;-72
2021/04/18 11:30:12;;;;;;;15.68;10.85;;;;;;;11.34;53.75;98208.23;1801349;79;21050;-72